sensor_id;sensor_type;location;lat;lon;timestamp;P1;durP1;ratioP1;P2;durP2;ratioP2
69244;SDS011;56357;52.304;4.870;2023-04-06T00:01:45;7.95;;;3.75;;
69244;SDS011;56357;52.304;4.870;2023-04-06T00:04:12;7.67;;;3.60;;
69244;SDS011;56357;52.304;4.870;2023-04-06T00:06:38;8.10;;;3.40;;
69244;SDS011;56357;52.304;4.870;2023-04-06T00:09:05;7.63;;;3.85;;
69244;SDS011;56357;52.304;4.870;2023-04-06T00:11:31;9.23;;;3.47;;
69244;SDS011;56357;52.304;4.870;2023-04-06T00:13:58;7.32;;;3.70;;
69244;SDS011;56357;52.304;4.870;2023-04-06T00:16:25;6.97;;;3.10;;
69244;SDS011;56357;52.304;4.870;2023-04-06T00:18:51;7.40;;;3.20;;
69244;SDS011;56357;52.304;4.870;2023-04-06T00:21:17;7.78;;;3.45;;
69244;SDS011;56357;52.304;4.870;2023-04-06T00:23:44;8.02;;;3.05;;
69244;SDS011;56357;52.304;4.870;2023-04-06T00:26:10;7.57;;;2.95;;
69244;SDS011;56357;52.304;4.870;2023-04-06T00:28:37;7.50;;;3.10;;
69244;SDS011;56357;52.304;4.870;2023-04-06T00:31:03;7.03;;;3.05;;
69244;SDS011;56357;52.304;4.870;2023-04-06T00:33:30;7.10;;;3.13;;
69244;SDS011;56357;52.304;4.870;2023-04-06T00:35:56;6.70;;;2.80;;
69244;SDS011;56357;52.304;4.870;2023-04-06T00:38:23;8.43;;;3.22;;
69244;SDS011;56357;52.304;4.870;2023-04-06T00:40:49;7.10;;;3.17;;
69244;SDS011;56357;52.304;4.870;2023-04-06T00:43:16;7.18;;;2.85;;
69244;SDS011;56357;52.304;4.870;2023-04-06T00:45:42;6.68;;;2.80;;
69244;SDS011;56357;52.304;4.870;2023-04-06T00:48:08;6.93;;;2.80;;
69244;SDS011;56357;52.304;4.870;2023-04-06T00:50:35;6.05;;;2.60;;
69244;SDS011;56357;52.304;4.870;2023-04-06T00:53:01;7.53;;;3.00;;
69244;SDS011;56357;52.304;4.870;2023-04-06T00:55:28;6.88;;;2.90;;
69244;SDS011;56357;52.304;4.870;2023-04-06T00:57:57;6.82;;;2.80;;
69244;SDS011;56357;52.304;4.870;2023-04-06T01:00:24;5.63;;;2.35;;
69244;SDS011;56357;52.304;4.870;2023-04-06T01:02:51;5.80;;;2.33;;
69244;SDS011;56357;52.304;4.870;2023-04-06T01:05:18;6.53;;;2.97;;
69244;SDS011;56357;52.304;4.870;2023-04-06T01:07:45;7.05;;;2.50;;
69244;SDS011;56357;52.304;4.870;2023-04-06T01:10:21;6.07;;;2.63;;
69244;SDS011;56357;52.304;4.870;2023-04-06T01:12:49;6.38;;;2.92;;
69244;SDS011;56357;52.304;4.870;2023-04-06T01:15:16;6.32;;;2.78;;
69244;SDS011;56357;52.304;4.870;2023-04-06T01:17:43;5.00;;;2.30;;
69244;SDS011;56357;52.304;4.870;2023-04-06T01:20:09;5.85;;;2.10;;
69244;SDS011;56357;52.304;4.870;2023-04-06T01:22:36;5.25;;;2.22;;
69244;SDS011;56357;52.304;4.870;2023-04-06T01:25:02;6.63;;;2.38;;
69244;SDS011;56357;52.304;4.870;2023-04-06T01:27:29;5.95;;;2.50;;
69244;SDS011;56357;52.304;4.870;2023-04-06T01:29:55;6.43;;;2.40;;
69244;SDS011;56357;52.304;4.870;2023-04-06T01:32:22;6.18;;;2.55;;
69244;SDS011;56357;52.304;4.870;2023-04-06T01:34:48;5.57;;;2.15;;
69244;SDS011;56357;52.304;4.870;2023-04-06T01:37:15;6.60;;;2.45;;
69244;SDS011;56357;52.304;4.870;2023-04-06T01:39:42;5.28;;;2.47;;
69244;SDS011;56357;52.304;4.870;2023-04-06T01:42:09;6.20;;;2.30;;
69244;SDS011;56357;52.304;4.870;2023-04-06T01:44:35;6.22;;;2.40;;
69244;SDS011;56357;52.304;4.870;2023-04-06T01:47:02;6.22;;;2.47;;
69244;SDS011;56357;52.304;4.870;2023-04-06T01:49:29;7.05;;;2.60;;
69244;SDS011;56357;52.304;4.870;2023-04-06T01:51:55;6.00;;;2.58;;
69244;SDS011;56357;52.304;4.870;2023-04-06T01:54:21;6.30;;;2.00;;
69244;SDS011;56357;52.304;4.870;2023-04-06T01:56:48;5.53;;;2.13;;
69244;SDS011;56357;52.304;4.870;2023-04-06T01:59:15;5.80;;;2.20;;
69244;SDS011;56357;52.304;4.870;2023-04-06T02:01:41;5.97;;;2.45;;
69244;SDS011;56357;52.304;4.870;2023-04-06T02:04:08;6.07;;;2.58;;
69244;SDS011;56357;52.304;4.870;2023-04-06T02:06:34;5.53;;;2.40;;
69244;SDS011;56357;52.304;4.870;2023-04-06T02:09:01;5.88;;;2.53;;
69244;SDS011;56357;52.304;4.870;2023-04-06T02:11:27;4.97;;;1.88;;
69244;SDS011;56357;52.304;4.870;2023-04-06T02:13:54;5.63;;;2.30;;
69244;SDS011;56357;52.304;4.870;2023-04-06T02:16:21;5.57;;;1.52;;
69244;SDS011;56357;52.304;4.870;2023-04-06T02:18:49;5.57;;;2.07;;
69244;SDS011;56357;52.304;4.870;2023-04-06T02:21:15;6.20;;;2.15;;
69244;SDS011;56357;52.304;4.870;2023-04-06T02:23:45;5.55;;;2.28;;
69244;SDS011;56357;52.304;4.870;2023-04-06T02:26:11;6.30;;;2.30;;
69244;SDS011;56357;52.304;4.870;2023-04-06T02:28:38;7.18;;;2.10;;
69244;SDS011;56357;52.304;4.870;2023-04-06T02:31:04;5.10;;;1.77;;
69244;SDS011;56357;52.304;4.870;2023-04-06T02:33:31;4.93;;;1.92;;
69244;SDS011;56357;52.304;4.870;2023-04-06T02:35:57;5.70;;;2.10;;
69244;SDS011;56357;52.304;4.870;2023-04-06T02:38:24;5.30;;;1.90;;
69244;SDS011;56357;52.304;4.870;2023-04-06T02:40:50;6.05;;;2.03;;
69244;SDS011;56357;52.304;4.870;2023-04-06T02:43:16;5.80;;;2.00;;
69244;SDS011;56357;52.304;4.870;2023-04-06T02:45:43;5.78;;;1.90;;
69244;SDS011;56357;52.304;4.870;2023-04-06T02:48:09;5.13;;;2.05;;
69244;SDS011;56357;52.304;4.870;2023-04-06T02:50:36;4.90;;;1.60;;
69244;SDS011;56357;52.304;4.870;2023-04-06T02:53:02;5.88;;;2.15;;
69244;SDS011;56357;52.304;4.870;2023-04-06T02:55:29;4.73;;;1.70;;
69244;SDS011;56357;52.304;4.870;2023-04-06T02:57:55;5.30;;;1.70;;
69244;SDS011;56357;52.304;4.870;2023-04-06T03:00:21;5.07;;;1.92;;
69244;SDS011;56357;52.304;4.870;2023-04-06T03:02:48;5.60;;;2.13;;
69244;SDS011;56357;52.304;4.870;2023-04-06T03:05:14;6.07;;;1.75;;
69244;SDS011;56357;52.304;4.870;2023-04-06T03:07:41;5.53;;;2.10;;
69244;SDS011;56357;52.304;4.870;2023-04-06T03:10:07;5.25;;;1.90;;
69244;SDS011;56357;52.304;4.870;2023-04-06T03:12:34;6.18;;;2.17;;
69244;SDS011;56357;52.304;4.870;2023-04-06T03:15:01;5.38;;;1.67;;
69244;SDS011;56357;52.304;4.870;2023-04-06T03:17:27;5.18;;;2.10;;
69244;SDS011;56357;52.304;4.870;2023-04-06T03:19:54;5.47;;;1.77;;
69244;SDS011;56357;52.304;4.870;2023-04-06T03:22:20;4.63;;;1.60;;
69244;SDS011;56357;52.304;4.870;2023-04-06T03:24:47;6.03;;;2.28;;
69244;SDS011;56357;52.304;4.870;2023-04-06T03:27:13;5.43;;;1.77;;
69244;SDS011;56357;52.304;4.870;2023-04-06T03:29:39;5.00;;;1.85;;
69244;SDS011;56357;52.304;4.870;2023-04-06T03:32:06;4.60;;;1.70;;
69244;SDS011;56357;52.304;4.870;2023-04-06T03:34:32;5.88;;;1.73;;
69244;SDS011;56357;52.304;4.870;2023-04-06T03:36:59;5.55;;;2.05;;
69244;SDS011;56357;52.304;4.870;2023-04-06T03:39:25;5.22;;;1.80;;
69244;SDS011;56357;52.304;4.870;2023-04-06T03:41:52;5.05;;;1.83;;
69244;SDS011;56357;52.304;4.870;2023-04-06T03:44:18;6.60;;;1.80;;
69244;SDS011;56357;52.304;4.870;2023-04-06T03:46:45;4.82;;;1.75;;
69244;SDS011;56357;52.304;4.870;2023-04-06T03:49:11;5.15;;;1.70;;
69244;SDS011;56357;52.304;4.870;2023-04-06T03:51:38;5.47;;;1.73;;
69244;SDS011;56357;52.304;4.870;2023-04-06T03:54:04;4.82;;;1.80;;
69244;SDS011;56357;52.304;4.870;2023-04-06T03:56:31;4.33;;;1.40;;
69244;SDS011;56357;52.304;4.870;2023-04-06T03:58:57;6.43;;;2.10;;
69244;SDS011;56357;52.304;4.870;2023-04-06T04:01:24;5.50;;;1.90;;
69244;SDS011;56357;52.304;4.870;2023-04-06T04:03:50;5.45;;;1.83;;
69244;SDS011;56357;52.304;4.870;2023-04-06T04:06:17;5.18;;;1.80;;
69244;SDS011;56357;52.304;4.870;2023-04-06T04:08:43;5.53;;;1.83;;
69244;SDS011;56357;52.304;4.870;2023-04-06T04:11:10;5.13;;;1.70;;
69244;SDS011;56357;52.304;4.870;2023-04-06T04:13:36;5.63;;;2.15;;
69244;SDS011;56357;52.304;4.870;2023-04-06T04:16:03;4.57;;;1.50;;
69244;SDS011;56357;52.304;4.870;2023-04-06T04:18:29;5.25;;;1.85;;
69244;SDS011;56357;52.304;4.870;2023-04-06T04:20:55;5.23;;;1.80;;
69244;SDS011;56357;52.304;4.870;2023-04-06T04:23:22;4.82;;;1.70;;
69244;SDS011;56357;52.304;4.870;2023-04-06T04:25:48;5.20;;;2.22;;
69244;SDS011;56357;52.304;4.870;2023-04-06T04:28:16;4.53;;;1.52;;
69244;SDS011;56357;52.304;4.870;2023-04-06T04:30:42;4.63;;;1.90;;
69244;SDS011;56357;52.304;4.870;2023-04-06T04:33:08;5.10;;;2.00;;
69244;SDS011;56357;52.304;4.870;2023-04-06T04:35:35;5.68;;;2.17;;
69244;SDS011;56357;52.304;4.870;2023-04-06T04:38:01;4.97;;;1.92;;
69244;SDS011;56357;52.304;4.870;2023-04-06T04:40:28;5.55;;;1.95;;
69244;SDS011;56357;52.304;4.870;2023-04-06T04:42:55;4.68;;;1.58;;
69244;SDS011;56357;52.304;4.870;2023-04-06T04:45:21;5.10;;;2.10;;
69244;SDS011;56357;52.304;4.870;2023-04-06T04:47:48;5.30;;;2.05;;
69244;SDS011;56357;52.304;4.870;2023-04-06T04:50:14;5.95;;;2.10;;
69244;SDS011;56357;52.304;4.870;2023-04-06T04:52:41;5.80;;;1.98;;
69244;SDS011;56357;52.304;4.870;2023-04-06T04:55:07;5.50;;;2.15;;
69244;SDS011;56357;52.304;4.870;2023-04-06T04:57:33;5.07;;;1.90;;
69244;SDS011;56357;52.304;4.870;2023-04-06T05:00:00;6.88;;;2.53;;
69244;SDS011;56357;52.304;4.870;2023-04-06T05:02:26;5.68;;;1.98;;
69244;SDS011;56357;52.304;4.870;2023-04-06T05:04:53;6.95;;;2.95;;
69244;SDS011;56357;52.304;4.870;2023-04-06T05:07:20;6.75;;;2.88;;
69244;SDS011;56357;52.304;4.870;2023-04-06T05:09:47;7.43;;;2.10;;
69244;SDS011;56357;52.304;4.870;2023-04-06T05:12:14;4.97;;;2.15;;
69244;SDS011;56357;52.304;4.870;2023-04-06T05:14:40;6.05;;;2.30;;
69244;SDS011;56357;52.304;4.870;2023-04-06T05:17:07;5.55;;;1.95;;
69244;SDS011;56357;52.304;4.870;2023-04-06T05:19:33;5.75;;;2.38;;
69244;SDS011;56357;52.304;4.870;2023-04-06T05:22:00;7.00;;;1.77;;
69244;SDS011;56357;52.304;4.870;2023-04-06T05:24:26;6.68;;;2.00;;
69244;SDS011;56357;52.304;4.870;2023-04-06T05:26:53;5.72;;;2.42;;
69244;SDS011;56357;52.304;4.870;2023-04-06T05:29:19;7.50;;;2.40;;
69244;SDS011;56357;52.304;4.870;2023-04-06T05:31:46;5.75;;;2.03;;
69244;SDS011;56357;52.304;4.870;2023-04-06T05:34:12;8.47;;;2.47;;
69244;SDS011;56357;52.304;4.870;2023-04-06T05:36:39;6.72;;;2.30;;
69244;SDS011;56357;52.304;4.870;2023-04-06T05:39:06;7.32;;;2.63;;
69244;SDS011;56357;52.304;4.870;2023-04-06T05:41:32;7.70;;;2.38;;
69244;SDS011;56357;52.304;4.870;2023-04-06T05:43:59;8.07;;;2.20;;
69244;SDS011;56357;52.304;4.870;2023-04-06T05:46:25;7.97;;;2.50;;
69244;SDS011;56357;52.304;4.870;2023-04-06T05:48:52;9.10;;;2.47;;
69244;SDS011;56357;52.304;4.870;2023-04-06T05:51:18;8.57;;;2.22;;
69244;SDS011;56357;52.304;4.870;2023-04-06T05:53:45;6.97;;;2.10;;
69244;SDS011;56357;52.304;4.870;2023-04-06T05:56:12;6.80;;;2.15;;
69244;SDS011;56357;52.304;4.870;2023-04-06T05:58:38;12.83;;;3.30;;
69244;SDS011;56357;52.304;4.870;2023-04-06T06:01:05;9.13;;;2.70;;
69244;SDS011;56357;52.304;4.870;2023-04-06T06:03:31;11.77;;;3.28;;
69244;SDS011;56357;52.304;4.870;2023-04-06T06:06:01;9.38;;;3.20;;
69244;SDS011;56357;52.304;4.870;2023-04-06T06:08:28;10.45;;;3.30;;
69244;SDS011;56357;52.304;4.870;2023-04-06T06:10:55;13.77;;;3.30;;
69244;SDS011;56357;52.304;4.870;2023-04-06T06:13:25;11.90;;;3.08;;
69244;SDS011;56357;52.304;4.870;2023-04-06T06:15:51;14.13;;;3.20;;
69244;SDS011;56357;52.304;4.870;2023-04-06T06:18:18;12.98;;;2.92;;
69244;SDS011;56357;52.304;4.870;2023-04-06T06:20:44;9.13;;;3.28;;
69244;SDS011;56357;52.304;4.870;2023-04-06T06:23:11;13.47;;;3.10;;
69244;SDS011;56357;52.304;4.870;2023-04-06T06:25:37;11.65;;;3.15;;
69244;SDS011;56357;52.304;4.870;2023-04-06T06:28:03;16.70;;;4.00;;
69244;SDS011;56357;52.304;4.870;2023-04-06T06:30:30;9.82;;;3.80;;
69244;SDS011;56357;52.304;4.870;2023-04-06T06:32:56;16.30;;;4.05;;
69244;SDS011;56357;52.304;4.870;2023-04-06T06:35:23;14.73;;;3.50;;
69244;SDS011;56357;52.304;4.870;2023-04-06T06:37:50;12.77;;;3.67;;
69244;SDS011;56357;52.304;4.870;2023-04-06T06:40:16;10.88;;;4.43;;
69244;SDS011;56357;52.304;4.870;2023-04-06T06:42:43;10.90;;;3.10;;
69244;SDS011;56357;52.304;4.870;2023-04-06T06:45:09;12.07;;;3.22;;
69244;SDS011;56357;52.304;4.870;2023-04-06T06:47:36;11.23;;;3.10;;
69244;SDS011;56357;52.304;4.870;2023-04-06T06:50:02;15.57;;;3.53;;
69244;SDS011;56357;52.304;4.870;2023-04-06T06:52:29;10.45;;;3.20;;
69244;SDS011;56357;52.304;4.870;2023-04-06T06:54:56;13.80;;;3.60;;
69244;SDS011;56357;52.304;4.870;2023-04-06T06:57:22;16.90;;;4.15;;
69244;SDS011;56357;52.304;4.870;2023-04-06T06:59:49;9.10;;;3.10;;
69244;SDS011;56357;52.304;4.870;2023-04-06T07:02:15;15.60;;;3.83;;
69244;SDS011;56357;52.304;4.870;2023-04-06T07:04:41;15.48;;;4.00;;
69244;SDS011;56357;52.304;4.870;2023-04-06T07:07:08;11.10;;;3.05;;
69244;SDS011;56357;52.304;4.870;2023-04-06T07:09:35;10.68;;;3.72;;
69244;SDS011;56357;52.304;4.870;2023-04-06T07:12:01;12.70;;;3.27;;
69244;SDS011;56357;52.304;4.870;2023-04-06T07:14:28;13.80;;;4.50;;
69244;SDS011;56357;52.304;4.870;2023-04-06T07:16:54;12.00;;;3.75;;
69244;SDS011;56357;52.304;4.870;2023-04-06T07:19:20;11.73;;;4.18;;
69244;SDS011;56357;52.304;4.870;2023-04-06T07:21:47;11.00;;;5.40;;
69244;SDS011;56357;52.304;4.870;2023-04-06T07:24:14;13.73;;;4.60;;
69244;SDS011;56357;52.304;4.870;2023-04-06T07:26:42;13.43;;;4.80;;
69244;SDS011;56357;52.304;4.870;2023-04-06T07:29:08;10.82;;;4.53;;
69244;SDS011;56357;52.304;4.870;2023-04-06T07:31:35;9.10;;;4.30;;
69244;SDS011;56357;52.304;4.870;2023-04-06T07:34:01;12.07;;;5.65;;
69244;SDS011;56357;52.304;4.870;2023-04-06T07:36:28;11.07;;;4.37;;
69244;SDS011;56357;52.304;4.870;2023-04-06T07:38:54;14.75;;;4.35;;
69244;SDS011;56357;52.304;4.870;2023-04-06T07:41:21;10.48;;;4.40;;
69244;SDS011;56357;52.304;4.870;2023-04-06T07:43:48;12.38;;;3.63;;
69244;SDS011;56357;52.304;4.870;2023-04-06T07:46:14;11.27;;;4.13;;
69244;SDS011;56357;52.304;4.870;2023-04-06T07:48:41;9.70;;;3.37;;
69244;SDS011;56357;52.304;4.870;2023-04-06T07:51:07;9.45;;;3.45;;
69244;SDS011;56357;52.304;4.870;2023-04-06T07:53:39;11.02;;;3.88;;
69244;SDS011;56357;52.304;4.870;2023-04-06T07:56:05;8.52;;;4.18;;
69244;SDS011;56357;52.304;4.870;2023-04-06T07:58:32;12.98;;;4.00;;
69244;SDS011;56357;52.304;4.870;2023-04-06T08:00:58;10.10;;;4.20;;
69244;SDS011;56357;52.304;4.870;2023-04-06T08:03:25;9.18;;;3.92;;
69244;SDS011;56357;52.304;4.870;2023-04-06T08:05:51;10.18;;;3.80;;
69244;SDS011;56357;52.304;4.870;2023-04-06T08:08:18;9.50;;;3.40;;
69244;SDS011;56357;52.304;4.870;2023-04-06T08:10:46;10.07;;;4.15;;
69244;SDS011;56357;52.304;4.870;2023-04-06T08:13:15;11.97;;;4.07;;
69244;SDS011;56357;52.304;4.870;2023-04-06T08:15:42;10.50;;;3.70;;
69244;SDS011;56357;52.304;4.870;2023-04-06T08:18:08;9.88;;;4.03;;
69244;SDS011;56357;52.304;4.870;2023-04-06T08:20:35;9.23;;;3.35;;
69244;SDS011;56357;52.304;4.870;2023-04-06T08:23:02;10.57;;;4.68;;
69244;SDS011;56357;52.304;4.870;2023-04-06T08:25:29;9.97;;;3.90;;
69244;SDS011;56357;52.304;4.870;2023-04-06T08:27:55;11.57;;;3.92;;
69244;SDS011;56357;52.304;4.870;2023-04-06T08:30:21;11.27;;;3.90;;
69244;SDS011;56357;52.304;4.870;2023-04-06T08:32:48;10.38;;;3.78;;
69244;SDS011;56357;52.304;4.870;2023-04-06T08:35:14;8.38;;;3.35;;
69244;SDS011;56357;52.304;4.870;2023-04-06T08:37:41;7.00;;;3.17;;
69244;SDS011;56357;52.304;4.870;2023-04-06T08:40:08;9.45;;;3.28;;
69244;SDS011;56357;52.304;4.870;2023-04-06T08:42:37;8.45;;;3.78;;
69244;SDS011;56357;52.304;4.870;2023-04-06T08:45:06;7.63;;;3.33;;
69244;SDS011;56357;52.304;4.870;2023-04-06T08:47:34;8.70;;;3.67;;
69244;SDS011;56357;52.304;4.870;2023-04-06T08:50:03;8.40;;;3.97;;
69244;SDS011;56357;52.304;4.870;2023-04-06T08:52:31;8.45;;;3.55;;
69244;SDS011;56357;52.304;4.870;2023-04-06T08:54:58;8.55;;;3.30;;
69244;SDS011;56357;52.304;4.870;2023-04-06T08:57:25;8.93;;;3.80;;
69244;SDS011;56357;52.304;4.870;2023-04-06T08:59:52;7.38;;;3.72;;
69244;SDS011;56357;52.304;4.870;2023-04-06T09:02:21;10.97;;;3.83;;
69244;SDS011;56357;52.304;4.870;2023-04-06T09:04:48;7.05;;;3.60;;
69244;SDS011;56357;52.304;4.870;2023-04-06T09:07:18;9.70;;;3.90;;
69244;SDS011;56357;52.304;4.870;2023-04-06T09:09:44;9.70;;;4.07;;
69244;SDS011;56357;52.304;4.870;2023-04-06T09:12:30;8.65;;;3.38;;
69244;SDS011;56357;52.304;4.870;2023-04-06T09:14:59;8.33;;;3.20;;
69244;SDS011;56357;52.304;4.870;2023-04-06T09:17:30;8.52;;;3.60;;
69244;SDS011;56357;52.304;4.870;2023-04-06T09:20:02;10.40;;;2.95;;
69244;SDS011;56357;52.304;4.870;2023-04-06T09:22:36;8.27;;;2.80;;
69244;SDS011;56357;52.304;4.870;2023-04-06T09:25:03;6.45;;;2.55;;
69244;SDS011;56357;52.304;4.870;2023-04-06T09:27:31;7.63;;;2.93;;
69244;SDS011;56357;52.304;4.870;2023-04-06T09:30:08;8.57;;;3.45;;
69244;SDS011;56357;52.304;4.870;2023-04-06T09:32:48;7.43;;;3.38;;
69244;SDS011;56357;52.304;4.870;2023-04-06T09:35:16;7.88;;;3.03;;
69244;SDS011;56357;52.304;4.870;2023-04-06T09:37:45;8.73;;;3.55;;
69244;SDS011;56357;52.304;4.870;2023-04-06T09:40:13;9.53;;;4.00;;
69244;SDS011;56357;52.304;4.870;2023-04-06T09:42:42;7.15;;;2.97;;
69244;SDS011;56357;52.304;4.870;2023-04-06T09:45:12;8.80;;;3.63;;
69244;SDS011;56357;52.304;4.870;2023-04-06T09:47:40;6.72;;;2.88;;
69244;SDS011;56357;52.304;4.870;2023-04-06T09:50:10;7.60;;;3.25;;
69244;SDS011;56357;52.304;4.870;2023-04-06T09:52:41;9.33;;;3.60;;
69244;SDS011;56357;52.304;4.870;2023-04-06T09:55:12;8.20;;;3.63;;
69244;SDS011;56357;52.304;4.870;2023-04-06T09:58:03;8.30;;;3.42;;
69244;SDS011;56357;52.304;4.870;2023-04-06T10:00:32;10.27;;;4.50;;
69244;SDS011;56357;52.304;4.870;2023-04-06T10:03:13;7.25;;;3.20;;
69244;SDS011;56357;52.304;4.870;2023-04-06T10:05:49;6.37;;;2.33;;
69244;SDS011;56357;52.304;4.870;2023-04-06T10:08:18;5.93;;;2.50;;
69244;SDS011;56357;52.304;4.870;2023-04-06T10:10:46;9.45;;;4.07;;
69244;SDS011;56357;52.304;4.870;2023-04-06T10:13:13;6.50;;;2.78;;
69244;SDS011;56357;52.304;4.870;2023-04-06T10:15:41;7.35;;;3.55;;
69244;SDS011;56357;52.304;4.870;2023-04-06T10:18:08;5.87;;;2.60;;
69244;SDS011;56357;52.304;4.870;2023-04-06T10:20:42;7.03;;;3.05;;
69244;SDS011;56357;52.304;4.870;2023-04-06T10:25:54;8.73;;;3.15;;
69244;SDS011;56357;52.304;4.870;2023-04-06T10:28:22;6.90;;;2.80;;
69244;SDS011;56357;52.304;4.870;2023-04-06T10:30:48;6.63;;;2.27;;
69244;SDS011;56357;52.304;4.870;2023-04-06T10:33:15;8.77;;;4.18;;
69244;SDS011;56357;52.304;4.870;2023-04-06T10:35:44;6.05;;;2.95;;
69244;SDS011;56357;52.304;4.870;2023-04-06T10:38:10;6.90;;;2.90;;
69244;SDS011;56357;52.304;4.870;2023-04-06T10:40:39;6.82;;;2.65;;
69244;SDS011;56357;52.304;4.870;2023-04-06T10:43:12;7.10;;;2.90;;
69244;SDS011;56357;52.304;4.870;2023-04-06T10:45:39;6.70;;;3.13;;
69244;SDS011;56357;52.304;4.870;2023-04-06T10:48:14;7.22;;;2.67;;
69244;SDS011;56357;52.304;4.870;2023-04-06T10:50:46;7.03;;;2.50;;
69244;SDS011;56357;52.304;4.870;2023-04-06T10:53:21;7.03;;;2.80;;
69244;SDS011;56357;52.304;4.870;2023-04-06T10:55:53;7.30;;;3.03;;
69244;SDS011;56357;52.304;4.870;2023-04-06T10:58:28;10.20;;;3.53;;
69244;SDS011;56357;52.304;4.870;2023-04-06T11:00:55;6.30;;;2.55;;
69244;SDS011;56357;52.304;4.870;2023-04-06T11:03:22;6.47;;;2.50;;
69244;SDS011;56357;52.304;4.870;2023-04-06T11:05:49;7.70;;;2.85;;
69244;SDS011;56357;52.304;4.870;2023-04-06T11:08:27;6.93;;;2.70;;
69244;SDS011;56357;52.304;4.870;2023-04-06T11:11:18;6.38;;;2.25;;
69244;SDS011;56357;52.304;4.870;2023-04-06T11:16:16;7.93;;;2.58;;
69244;SDS011;56357;52.304;4.870;2023-04-06T11:21:15;6.63;;;2.50;;
69244;SDS011;56357;52.304;4.870;2023-04-06T11:23:41;6.20;;;2.35;;
69244;SDS011;56357;52.304;4.870;2023-04-06T11:26:11;6.25;;;2.60;;
69244;SDS011;56357;52.304;4.870;2023-04-06T11:28:41;5.50;;;2.13;;
69244;SDS011;56357;52.304;4.870;2023-04-06T11:31:09;6.20;;;1.95;;
69244;SDS011;56357;52.304;4.870;2023-04-06T11:33:38;6.07;;;2.17;;
69244;SDS011;56357;52.304;4.870;2023-04-06T11:36:04;5.95;;;2.30;;
69244;SDS011;56357;52.304;4.870;2023-04-06T11:38:31;5.30;;;2.30;;
69244;SDS011;56357;52.304;4.870;2023-04-06T11:40:58;6.72;;;2.17;;
69244;SDS011;56357;52.304;4.870;2023-04-06T11:43:28;5.95;;;2.47;;
69244;SDS011;56357;52.304;4.870;2023-04-06T11:46:00;5.93;;;2.73;;
69244;SDS011;56357;52.304;4.870;2023-04-06T11:48:31;5.88;;;2.45;;
69244;SDS011;56357;52.304;4.870;2023-04-06T11:50:58;4.72;;;1.92;;
69244;SDS011;56357;52.304;4.870;2023-04-06T11:53:26;4.47;;;1.70;;
69244;SDS011;56357;52.304;4.870;2023-04-06T11:55:58;4.57;;;1.60;;
69244;SDS011;56357;52.304;4.870;2023-04-06T11:58:25;5.40;;;1.60;;
69244;SDS011;56357;52.304;4.870;2023-04-06T12:00:52;5.13;;;1.70;;
69244;SDS011;56357;52.304;4.870;2023-04-06T12:03:18;5.32;;;1.80;;
69244;SDS011;56357;52.304;4.870;2023-04-06T12:05:45;5.07;;;1.95;;
69244;SDS011;56357;52.304;4.870;2023-04-06T12:08:11;5.97;;;1.88;;
69244;SDS011;56357;52.304;4.870;2023-04-06T12:10:38;5.20;;;2.23;;
69244;SDS011;56357;52.304;4.870;2023-04-06T12:13:04;4.22;;;1.65;;
69244;SDS011;56357;52.304;4.870;2023-04-06T12:15:31;5.28;;;1.73;;
69244;SDS011;56357;52.304;4.870;2023-04-06T12:17:58;5.85;;;2.08;;
69244;SDS011;56357;52.304;4.870;2023-04-06T12:20:24;5.90;;;2.88;;
69244;SDS011;56357;52.304;4.870;2023-04-06T12:22:51;4.27;;;1.40;;
69244;SDS011;56357;52.304;4.870;2023-04-06T12:25:17;4.93;;;1.88;;
69244;SDS011;56357;52.304;4.870;2023-04-06T12:27:44;5.30;;;2.25;;
69244;SDS011;56357;52.304;4.870;2023-04-06T12:30:11;4.55;;;1.70;;
69244;SDS011;56357;52.304;4.870;2023-04-06T12:32:38;4.47;;;1.50;;
69244;SDS011;56357;52.304;4.870;2023-04-06T12:35:04;5.60;;;1.70;;
69244;SDS011;56357;52.304;4.870;2023-04-06T12:37:33;4.57;;;1.48;;
69244;SDS011;56357;52.304;4.870;2023-04-06T12:40:00;4.25;;;1.50;;
69244;SDS011;56357;52.304;4.870;2023-04-06T12:42:27;4.45;;;1.60;;
69244;SDS011;56357;52.304;4.870;2023-04-06T12:44:54;4.88;;;1.77;;
69244;SDS011;56357;52.304;4.870;2023-04-06T12:47:21;4.93;;;1.60;;
69244;SDS011;56357;52.304;4.870;2023-04-06T12:49:47;4.43;;;1.48;;
69244;SDS011;56357;52.304;4.870;2023-04-06T12:52:15;4.38;;;1.50;;
69244;SDS011;56357;52.304;4.870;2023-04-06T12:54:41;4.35;;;1.60;;
69244;SDS011;56357;52.304;4.870;2023-04-06T12:57:08;4.40;;;1.40;;
69244;SDS011;56357;52.304;4.870;2023-04-06T12:59:34;5.03;;;1.40;;
69244;SDS011;56357;52.304;4.870;2023-04-06T13:02:03;4.32;;;1.27;;
69244;SDS011;56357;52.304;4.870;2023-04-06T13:04:30;4.80;;;1.67;;
69244;SDS011;56357;52.304;4.870;2023-04-06T13:06:56;4.75;;;1.60;;
69244;SDS011;56357;52.304;4.870;2023-04-06T13:09:23;4.55;;;1.50;;
69244;SDS011;56357;52.304;4.870;2023-04-06T13:11:49;4.60;;;1.17;;
69244;SDS011;56357;52.304;4.870;2023-04-06T13:14:16;4.90;;;1.48;;
69244;SDS011;56357;52.304;4.870;2023-04-06T13:16:42;4.57;;;1.40;;
69244;SDS011;56357;52.304;4.870;2023-04-06T13:19:09;4.15;;;1.27;;
69244;SDS011;56357;52.304;4.870;2023-04-06T13:21:36;5.53;;;1.73;;
69244;SDS011;56357;52.304;4.870;2023-04-06T13:24:03;4.10;;;1.30;;
69244;SDS011;56357;52.304;4.870;2023-04-06T13:26:31;4.43;;;1.38;;
69244;SDS011;56357;52.304;4.870;2023-04-06T13:28:59;5.25;;;1.20;;
69244;SDS011;56357;52.304;4.870;2023-04-06T13:31:26;4.65;;;1.40;;
69244;SDS011;56357;52.304;4.870;2023-04-06T13:33:52;5.30;;;1.55;;
69244;SDS011;56357;52.304;4.870;2023-04-06T13:36:19;4.40;;;1.13;;
69244;SDS011;56357;52.304;4.870;2023-04-06T13:38:46;4.90;;;1.35;;
69244;SDS011;56357;52.304;4.870;2023-04-06T13:41:22;3.92;;;1.38;;
69244;SDS011;56357;52.304;4.870;2023-04-06T13:43:50;3.53;;;1.10;;
69244;SDS011;56357;52.304;4.870;2023-04-06T13:46:17;4.20;;;1.75;;
69244;SDS011;56357;52.304;4.870;2023-04-06T13:48:44;4.57;;;1.10;;
69244;SDS011;56357;52.304;4.870;2023-04-06T13:51:12;4.75;;;1.30;;
69244;SDS011;56357;52.304;4.870;2023-04-06T13:53:39;4.85;;;1.40;;
69244;SDS011;56357;52.304;4.870;2023-04-06T13:56:06;3.78;;;1.20;;
69244;SDS011;56357;52.304;4.870;2023-04-06T13:58:33;5.10;;;1.40;;
69244;SDS011;56357;52.304;4.870;2023-04-06T14:01:04;4.60;;;1.40;;
69244;SDS011;56357;52.304;4.870;2023-04-06T14:03:32;4.38;;;1.42;;
69244;SDS011;56357;52.304;4.870;2023-04-06T14:05:59;6.10;;;1.35;;
69244;SDS011;56357;52.304;4.870;2023-04-06T14:08:26;3.83;;;1.10;;
69244;SDS011;56357;52.304;4.870;2023-04-06T14:10:52;4.10;;;1.27;;
69244;SDS011;56357;52.304;4.870;2023-04-06T14:13:19;4.10;;;1.37;;
69244;SDS011;56357;52.304;4.870;2023-04-06T14:15:45;5.28;;;1.75;;
69244;SDS011;56357;52.304;4.870;2023-04-06T14:18:12;3.60;;;1.25;;
69244;SDS011;56357;52.304;4.870;2023-04-06T14:20:38;5.13;;;1.70;;
69244;SDS011;56357;52.304;4.870;2023-04-06T14:23:05;4.07;;;1.30;;
69244;SDS011;56357;52.304;4.870;2023-04-06T14:25:31;3.80;;;1.00;;
69244;SDS011;56357;52.304;4.870;2023-04-06T14:27:59;4.10;;;1.33;;
69244;SDS011;56357;52.304;4.870;2023-04-06T14:30:26;3.88;;;1.20;;
69244;SDS011;56357;52.304;4.870;2023-04-06T14:32:52;3.88;;;1.00;;
69244;SDS011;56357;52.304;4.870;2023-04-06T14:35:19;5.07;;;1.60;;
69244;SDS011;56357;52.304;4.870;2023-04-06T14:37:46;5.03;;;1.47;;
69244;SDS011;56357;52.304;4.870;2023-04-06T14:40:12;6.05;;;1.45;;
69244;SDS011;56357;52.304;4.870;2023-04-06T14:42:39;4.60;;;1.42;;
69244;SDS011;56357;52.304;4.870;2023-04-06T14:45:05;5.15;;;1.83;;
69244;SDS011;56357;52.304;4.870;2023-04-06T14:47:32;5.28;;;1.85;;
69244;SDS011;56357;52.304;4.870;2023-04-06T14:49:58;4.20;;;1.30;;
69244;SDS011;56357;52.304;4.870;2023-04-06T14:52:25;4.88;;;1.90;;
69244;SDS011;56357;52.304;4.870;2023-04-06T14:54:51;4.68;;;1.73;;